Latest Coastal Weather Observations for Hobart Airport

IDT60701

Issued at 8:52 pm EST Tuesday 30 May 2017 (issued every 10 minutes, with the page automatically refreshed every 10 minutes)

About coastal observations | Map of coastal stations | Coastal observations for TAS | Marine services | Other Formats
Station Details ID: 094008 Name: HOBART AIRPORT Lat: -42.83 Lon: 147.50 Height: 4.0 m
Data from the previous 72 hours. | See also: Recent months at Hobart Airport
Date/Time
EST
Temp
°C
Wind Pressure Rain since
9am
mm
Weather Cloud Vis
km
Sea
Height
m
Swell
Dir  Spd
kts
Gust
kts
hPa Trend Height
m
Period
s
Dir
30/08:30pm 5.4 WNW 6 8 1023.3 - 8.0 - Mostly clear 10 - - - -
30/08:00pm 7.1 SW 9 14 1022.7 - 8.0 - Mostly clear 10 - - - -
30/07:30pm 6.5 SW 7 10 1022.5 - 8.0 - Mostly clear 10 - - - -
30/07:00pm 6.1 SW 8 11 1022.3 - 8.0 - Mostly clear 10 - - - -
30/06:30pm 6.9 SW 13 17 1022.1 - 8.0 - Mostly clear 10 - - - -
30/06:00pm 7.4 WSW 12 18 1021.2 R 7.8 Showers Mostly cloudy 15 - - - -
30/05:30pm 7.6 WSW 11 14 1020.5 - 7.8 - Mostly clear 10 - - - -
30/05:00pm 7.8 SW 9 14 1019.9 - 7.6 - Mostly clear 10 - - - -
30/04:30pm 8.1 SW 15 23 1019.0 - 7.6 - Mostly clear 10 - - - -
30/04:00pm 8.2 SW 11 17 1018.5 - 7.6 - Mostly clear 10 - - - -
30/03:30pm 8.5 WSW 11 15 1018.3 - 7.6 - Mostly clear 10 - - - -
30/03:00pm 7.6 SW 12 17 1018.1 R 7.6 Distant precip. Mostly cloudy 20 - - - -
30/02:30pm 7.6 WSW 15 21 1017.7 - 7.4 - Mostly clear 10 - - - -
30/02:00pm 7.2 WSW 10 13 1016.9 - 7.4 - Mostly clear 10 - - - -
30/01:46pm 6.8 W 9 15 1016.8 - 7.4 - Mostly clear 10 - - - -
30/01:30pm 6.9 SW 14 20 1017.1 - 6.4 Rain Mostly clear 6 - - - -
30/01:13pm 6.9 WSW 13 20 1016.5 - 5.4 - Mostly clear 10 - - - -
30/01:00pm 6.8 WSW 16 25 1016.2 - 4.8 - Partly cloudy 5 - - - -
30/12:38pm 7.0 SW 14 22 1015.9 - 4.2 Rain Mostly clear 8 - - - -
30/12:30pm 7.2 SW 13 17 1016.1 - 3.6 Rain Partly cloudy 5 - - - -
30/12:29pm 7.3 SW 13 17 1016.1 - 3.4 Rain Partly cloudy 5 - - - -
30/12:00pm 7.6 SW 17 22 1015.4 R 3.2 Rain Cloudy 8 - - - -
30/11:30am 7.7 SW 11 20 1014.9 - 2.2 Rain Mostly clear 9 - - - -
30/11:00am 7.7 SW 14 20 1014.6 - 1.4 - Mostly clear 8 - - - -
30/10:30am 8.4 SW 11 16 1013.9 - 0.6 - Mostly clear 10 - - - -
30/10:00am 8.6 WSW 11 19 1013.0 - 0.2 - Mostly clear 9 - - - -
30/09:30am 8.5 WSW 12 17 1012.5 - 0.2 Rain Mostly clear 10 - - - -
30/09:00am 8.5 SW 13 18 1011.9 R 3.6 Rain Cloudy 8 - - - -
30/08:30am 8.5 SW 11 18 1011.2 - 3.2 Rain Mostly clear 8 - - - -
30/08:00am 8.4 SW 9 13 1010.9 - 3.2 - Mostly clear 10 - - - -
30/07:30am 8.3 SSW 14 20 1009.8 - 3.0 Rain Mostly clear 9 - - - -
30/07:00am 8.6 SSW 15 25 1009.3 - 2.2 - Mostly clear 8 - - - -
30/06:48am 8.7 SSW 15 28 1009.3 - 2.0 Rain Mostly clear 8 - - - -
30/06:30am 8.6 SSW 13 19 1008.9 - 1.2 Rain Mostly clear 7 - - - -
30/06:21am 8.5 SSW 15 18 1008.8 - 0.6 Rain Mostly clear 9 - - - -
30/06:00am 8.3 NW 6 8 1007.7 F 0.0 Rain Mostly cloudy 25 - - - -
30/05:30am 9.4 NW 6 8 1007.3 - 0.0 - Mostly clear 10 - - - -
30/05:00am 9.0 WNW 6 7 1007.2 - 0.0 - Mostly clear 10 - - - -
30/04:30am 8.5 NW 5 7 1006.9 - 0.0 - Mostly clear 10 - - - -
30/04:00am 8.7 NNW 5 6 1007.2 - 0.0 - Mostly clear 10 - - - -
30/03:30am 8.3 NNW 5 6 1007.7 - 0.0 - Mostly clear 10 - - - -
30/03:00am 8.4 NNW 6 9 1008.1 F 0.0 Fine Mostly cloudy 40 - - - -
30/02:30am 9.0 NNW 7 11 1008.5 - 0.0 - Mostly clear 10 - - - -
30/02:00am 9.3 N 7 10 1008.9 - 0.0 - Mostly clear 10 - - - -
30/01:30am 9.3 NNW 9 12 1009.4 - 0.0 - Mostly clear 10 - - - -
30/01:00am 9.1 NNW 6 8 1009.6 - 0.0 - Mostly clear 10 - - - -
30/12:30am 9.4 NNW 6 9 1010.1 - 0.0 - Mostly clear 10 - - - -
30/12:00am 9.2 NNW 9 13 1010.4 F 0.0 Fine Mostly cloudy 35 - - - -
 
Date/Time
EST
Temp
°C
Wind Pressure Rain since
9am
mm
Weather Cloud Vis
km
Sea
Height
m
Swell
Dir  Spd
kts
Gust
kts
hPa Trend Height
m
Period
s
Dir
29/11:30pm 9.6 NNW 7 11 1010.6 - 0.0 - Mostly clear 10 - - - -
29/11:00pm 8.9 N 11 15 1010.9 - 0.0 - Mostly clear 10 - - - -
29/10:30pm 8.9 N 8 12 1011.4 - 0.0 - Mostly clear 10 - - - -
29/10:00pm 8.9 N 7 9 1011.7 - 0.0 - Mostly clear 10 - - - -
29/09:30pm 8.7 N 9 12 1012.2 - 0.0 - Mostly clear 10 - - - -
29/09:00pm 8.3 N 6 9 1012.4 F 0.0 Fine Mostly cloudy 35 - - - -
29/08:30pm 8.0 N 7 11 1012.5 - 0.0 - Mostly clear 10 - - - -
29/08:00pm 8.5 NNW 8 13 1012.5 - 0.0 - Mostly clear 10 - - - -
29/07:30pm 8.4 NNW 7 9 1012.6 - 0.0 - Mostly clear 10 - - - -
29/07:00pm 9.0 NNW 7 9 1012.5 - 0.0 - Mostly clear 10 - - - -
29/06:30pm 8.8 NNW 7 9 1012.5 - 0.0 - Mostly clear 10 - - - -
29/06:00pm 8.2 N 7 9 1012.6 S 0.0 Fine Partly cloudy 40 - - - -
29/05:30pm 8.3 N 5 6 1012.5 - 0.0 - Mostly clear 10 - - - -
29/05:00pm 10.0 NW 5 7 1012.5 - 0.0 - Mostly clear 10 - - - -
29/04:30pm 10.2 NW 9 14 1012.5 - 0.0 - Mostly clear 10 - - - -
29/04:00pm 10.4 NNW 7 8 1012.2 - 0.0 - Partly cloudy 10 - - - -
29/03:30pm 10.7 NW 12 16 1011.9 - 0.0 - Mostly clear 10 - - - -
29/03:00pm 10.9 NW 13 17 1011.8 R 0.0 Fine Mostly cloudy 40 - - - -
29/02:30pm 11.2 NW 14 18 1011.8 - 0.0 - Mostly clear 10 - - - -
29/02:00pm 11.4 WNW 13 19 1011.5 - 0.0 - Mostly clear 10 - - - -
29/01:30pm 11.7 WNW 15 19 1011.5 - 0.0 - Mostly clear 10 - - - -
29/01:00pm 11.9 WNW 11 16 1011.5 - 0.0 - Mostly clear 10 - - - -
29/12:30pm 11.9 NW 10 15 1011.4 - 0.0 - Mostly clear 10 - - - -
29/12:00pm 12.4 WNW 13 16 1011.5 R 0.0 Fine Mostly cloudy 40 - - - -
29/11:30am 11.1 NW 13 17 1011.5 - 0.0 - Mostly clear 10 - - - -
29/11:00am 11.6 NW 12 16 1011.7 - 0.0 - Mostly clear 10 - - - -
29/10:30am 10.6 NW 12 16 1011.8 - 0.0 - Mostly clear 10 - - - -
29/10:00am 10.2 NW 12 16 1011.5 - 0.0 - Mostly clear 10 - - - -
29/09:30am 9.3 N 7 10 1011.4 - 0.0 - Mostly clear 10 - - - -
29/09:00am 7.9 NNW 7 11 1011.3 R 0.8 Fine Partly cloudy 40 - - - -
29/08:30am 6.8 NW 8 10 1010.8 - 0.8 - Mostly clear 10 - - - -
29/08:00am 6.3 NW 9 13 1010.6 - 0.8 - Mostly clear 10 - - - -
29/07:30am 5.5 NW 4 5 1010.2 - 0.8 - Mostly clear 10 - - - -
29/07:00am 6.4 NW 6 8 1009.9 - 0.8 - Mostly clear 10 - - - -
29/06:30am 6.5 NNW 7 9 1009.4 - 0.8 - Mostly clear 10 - - - -
29/06:00am 6.7 NNW 8 10 1009.0 R 0.8 Fine Mostly clear 40 - - - -
29/05:30am 7.1 NW 7 9 1008.6 - 0.8 - Mostly clear 10 - - - -
29/05:00am 7.6 NW 9 13 1008.3 - 0.8 - Mostly clear 10 - - - -
29/04:30am 7.3 NNW 10 14 1008.0 - 0.8 - Mostly clear 10 - - - -
29/04:00am 7.2 NNW 9 13 1007.7 - 0.8 - Mostly clear 10 - - - -
29/03:30am 7.8 NNW 8 11 1007.6 - 0.8 - Mostly clear 10 - - - -
29/03:00am 7.7 NW 9 14 1007.3 R 0.8 Fine Mostly clear 35 - - - -
29/02:30am 7.8 NNW 9 14 1007.1 - 0.8 - Mostly clear 10 - - - -
29/02:00am 8.0 NW 12 15 1007.0 - 0.8 - Mostly clear 10 - - - -
29/01:30am 7.9 NW 12 16 1006.7 - 0.8 - Mostly clear 10 - - - -
29/01:00am 7.6 NW 8 10 1006.7 - 0.8 - Mostly clear 10 - - - -
29/12:30am 7.1 WNW 7 8 1006.6 - 0.8 - Mostly clear 10 - - - -
29/12:00am 7.1 NW 6 9 1006.6 R 0.8 Fine Mostly clear 30 - - - -
 
Date/Time
EST
Temp
°C
Wind Pressure Rain since
9am
mm
Weather Cloud Vis
km
Sea
Height
m
Swell
Dir  Spd
kts
Gust
kts
hPa Trend Height
m
Period
s
Dir
28/11:30pm 7.4 WNW 10 13 1006.4 - 0.8 - Mostly clear 10 - - - -
28/11:00pm 4.5 NNE 2 4 1006.1 - 0.8 - Mostly clear 10 - - - -
28/10:30pm 3.8 CALM 0 0 1005.9 - 0.8 - Mostly clear 10 - - - -
28/10:00pm 4.3 CALM 0 0 1005.9 - 0.8 - Mostly clear 10 - - - -
28/09:30pm 7.1 W 3 4 1005.8 - 0.8 - Mostly clear 10 - - - -
28/09:00pm 5.4 CALM 0 0 1005.5 R 0.8 Fine Partly cloudy 35 - - - -
28/08:30pm 6.4 N 3 5 1005.2 - 0.8 - Mostly clear 10 - - - -
28/08:00pm 8.1 WNW 4 5 1004.7 - 0.8 - Mostly clear 10 - - - -
28/07:30pm 8.7 WSW 1 4 1004.5 - 0.8 - Mostly clear 10 - - - -
28/07:00pm 8.5 NNW 2 4 1004.0 - 0.8 - Mostly clear 10 - - - -
28/06:30pm 9.0 SSE 5 9 1003.4 - 0.8 - Mostly clear 10 - - - -
28/06:00pm 10.0 SSW 9 14 1003.0 R 0.8 Recent precip. Mostly cloudy 35 - - - -
28/05:30pm 10.2 SSW 5 7 1002.5 - 0.8 - Mostly clear 10 - - - -
28/05:00pm 9.9 S 5 7 1002.2 - 0.8 - Mostly clear 10 - - - -
28/04:30pm 10.4 S 13 18 1001.7 - 0.4 Showers Mostly clear 10 - - - -
28/04:00pm 12.3 WSW 6 7 1001.3 - 0.0 - Mostly clear 10 - - - -
28/03:30pm 12.5 WSW 6 8 1000.7 - 0.0 - Mostly clear 10 - - - -
28/03:00pm 12.4 NW 6 7 1000.6 R 0.0 Fine Mostly cloudy 35 - - - -
28/02:30pm 12.2 NW 8 10 1000.2 - 0.0 - Mostly clear 10 - - - -
28/02:00pm 11.9 NW 7 10 1000.1 - 0.0 - Mostly clear 10 - - - -
28/01:30pm 11.8 NNW 7 10 1000.1 - 0.0 - Mostly clear 10 - - - -
28/01:00pm 11.7 NNW 7 10 1000.2 - 0.0 - Mostly clear 10 - - - -
28/12:30pm 11.3 NNW 7 9 1000.0 - 0.0 - Mostly clear 10 - - - -
28/12:00pm 11.2 NW 7 10 1000.2 R 0.0 Fine Mostly cloudy 40 - - - -
28/11:30am 11.1 NNW 8 13 1000.4 - 0.0 - Mostly clear 10 - - - -
28/11:00am 11.0 NW 8 10 1000.6 - 0.0 - Mostly clear 10 - - - -
28/10:30am 10.9 NW 10 13 1000.7 - 0.0 - Mostly clear 10 - - - -
28/10:00am 10.6 NW 8 9 1000.5 - 0.0 - Mostly clear 10 - - - -
28/09:30am 10.6 NW 7 9 1000.5 - 0.0 - Mostly clear 10 - - - -
28/09:00am 10.4 NNW 8 10 1000.7 S 3.4 Recent precip. Mostly cloudy 35 - - - -
28/08:30am 10.1 NNW 8 10 1000.4 - 3.4 - Mostly clear 10 - - - -
28/08:00am 9.9 N 7 9 1000.5 - 3.4 - Mostly clear 10 - - - -
28/07:30am 10.1 NNW 7 9 1000.5 - 3.0 Rain Mostly clear 10 - - - -
28/07:00am 9.8 NW 6 8 1000.2 - 2.8 - Mostly clear 10 - - - -
28/06:30am 10.8 NW 7 9 1000.0 - 2.8 Showers Mostly clear 10 - - - -
28/06:00am 9.3 WNW 4 5 999.9 F 2.8 Recent precip. Cloudy 40 - - - -
28/05:30am 10.0 NW 6 7 999.8 - 2.8 Showers Mostly clear 10 - - - -
28/05:00am 10.1 WNW 3 5 1000.1 - 2.8 - Mostly clear 10 - - - -
28/04:30am 10.3 NW 2 4 1000.1 - 2.8 - Mostly clear 10 - - - -
28/04:00am 10.6 NW 4 5 1000.3 - 2.8 - Mostly clear 10 - - - -
28/03:30am 10.2 NW 3 5 1000.7 - 2.8 - Mostly clear 10 - - - -
28/03:00am 10.1 NNE 5 6 1001.1 F 2.6 Distant precip. Mostly cloudy 40 - - - -
28/02:30am 10.3 NNE 5 7 1001.6 - 2.6 Showers Mostly clear 10 - - - -
28/02:00am 11.3 NW 9 15 1002.3 - 2.2 - Mostly clear 10 - - - -
28/01:30am 11.7 WNW 8 10 1002.3 - 1.8 Showers Mostly clear 10 - - - -
28/01:00am 11.8 W 8 11 1002.6 - 1.8 - Mostly clear 10 - - - -
28/12:30am 12.3 NNW 5 7 1002.7 - 1.6 - Partly cloudy 10 - - - -
28/12:00am 12.8 N 8 13 1003.5 F 1.2 Rain Mostly cloudy 7 - - - -
 
Date/Time
EST
Temp
°C
Wind Pressure Rain since
9am
mm
Weather Cloud Vis
km
Sea
Height
m
Swell
Dir  Spd
kts
Gust
kts
hPa Trend Height
m
Period
s
Dir
27/11:30pm 13.2 NNW 9 12 1003.7 - 0.0 Rain Mostly cloudy 10 - - - -
27/11:00pm 14.7 N 12 21 1003.7 - 0.0 - Mostly clear 10 - - - -
27/10:30pm 14.5 N 9 14 1003.8 - 0.0 - Partly cloudy 10 - - - -
27/10:00pm 13.1 N 9 15 1004.1 - 0.0 - Partly cloudy 10 - - - -
27/09:30pm 13.2 N 11 16 1004.4 - 0.0 - - 10 - - - -
27/09:00pm 14.4 N 10 16 1004.5 F 0.0 Fine Partly cloudy 40 - - - -

Other Formats:

Comma delimited format used in spreadsheet applications
http://www.bom.gov.au/fwo/IDT60701/IDT60701.94975.axf

JavaScript Object Notation format (JSON) in row-major order
http://www.bom.gov.au/fwo/IDT60701/IDT60701.94975.json